Observation data for Tatum on 05/23/2019      Previous  Date       Current Mesonet Observations  Soil Data  Daily Summary Page  Observations in Plain Language
KTAT 230500Z 13018KT 23/14 A2981 RMK A01 T02250144  RH  062%=      5-min Rain = 0
KTAT 230505Z 13018G25KT 23/15 A2981 RMK A01 T02250146  RH  064%=      5-min Rain = 0
KTAT 230510Z 13017G22KT 23/15 A2981 RMK A01 T02250148  RH  064%=      5-min Rain = 0
KTAT 230515Z 13017G22KT 22/15 A2981 RMK A01 T02240149  RH  065%=      5-min Rain = 0
KTAT 230520Z 13017G22KT 22/15 A2981 RMK A01 T02230150  RH  066%=      5-min Rain = 0
KTAT 230525Z 13018G24KT 22/15 A2981 RMK A01 T02220151  RH  067%=      5-min Rain = 0
KTAT 230530Z 13018G23KT 22/15 A2981 RMK A01 T02220152  RH  067%=      5-min Rain = 0
KTAT 230535Z 13017G22KT 22/15 A2981 RMK A01 T02210152  RH  068%=      5-min Rain = 0
KTAT 230540Z 14017KT 22/15 A2981 RMK A01 T02200152  RH  069%=      5-min Rain = 0
KTAT 230545Z 14017KT 22/15 A2981 RMK A01 T02190153  RH  069%=      5-min Rain = 0
KTAT 230550Z 13016G21KT 22/15 A2981 RMK A01 T02170153  RH  070%=      5-min Rain = 0
KTAT 230555Z 14017KT 22/15 A2981 RMK A01 T02160153  RH  071%=      5-min Rain = 0
KTAT 230600Z 14016G21KT 22/15 A2981 RMK A01 T02160154  RH  071%=      5-min Rain = 0
KTAT 230605Z 14015G21KT 21/15 A2981 RMK A01 T02140153  RH  072%=      5-min Rain = 0
KTAT 230610Z 14017KT 21/15 A2981 RMK A01 T02130154  RH  072%=      5-min Rain = 0
KTAT 230615Z 14016G21KT 21/15 A2981 RMK A01 T02120154  RH  073%=      5-min Rain = 0
KTAT 230620Z 14016G21KT 21/15 A2981 RMK A01 T02110154  RH  073%=      5-min Rain = 0
KTAT 230625Z 14015KT 21/15 A2981 RMK A01 T02100154  RH  073%=      5-min Rain = 0
KTAT 230630Z 14015KT 21/15 A2981 RMK A01 T02090154  RH  074%=      5-min Rain = 0
KTAT 230635Z 14014KT 21/15 A2981 RMK A01 T02080154  RH  075%=      5-min Rain = 0
KTAT 230640Z 14015KT 21/16 A2981 RMK A01 T02070155  RH  075%=      5-min Rain = 0
KTAT 230645Z 14014G19KT 21/16 A2982 RMK A01 T02060155  RH  076%=      5-min Rain = 0
KTAT 230650Z 14014KT 21/16 A2982 RMK A01 T02050155  RH  076%=      5-min Rain = 0
KTAT 230655Z 14013KT 21/16 A2982 RMK A01 T02050155  RH  077%=      5-min Rain = 0
KTAT 230700Z 14013KT 21/16 A2982 RMK A01 T02060156  RH  077%=      5-min Rain = 0
KTAT 230705Z 14013KT 21/16 A2982 RMK A01 T02070157  RH  076%=      5-min Rain = 0
KTAT 230710Z 14013KT 21/16 A2982 RMK A01 T02070157  RH  076%=      5-min Rain = 0
KTAT 230715Z 14013KT 21/16 A2982 RMK A01 T02080157  RH  076%=      5-min Rain = 0
KTAT 230720Z 14012KT 21/16 A2983 RMK A01 T02090158  RH  076%=      5-min Rain = 0
KTAT 230725Z 15012KT 21/16 A2983 RMK A01 T02100159  RH  076%=      5-min Rain = 0
KTAT 230730Z 15012KT 21/16 A2983 RMK A01 T02120159  RH  076%=      5-min Rain = 0
KTAT 230735Z 15011KT 21/16 A2983 RMK A01 T02120160  RH  075%=      5-min Rain = 0
KTAT 230740Z 14012KT 21/16 A2983 RMK A01 T02120160  RH  076%=      5-min Rain = 0
KTAT 230745Z 15011KT 21/16 A2983 RMK A01 T02120160  RH  076%=      5-min Rain = 0
KTAT 230750Z 15011KT 21/16 A2983 RMK A01 T02120161  RH  076%=      5-min Rain = 0
KTAT 230755Z 14011KT 21/16 A2983 RMK A01 T02110161  RH  076%=      5-min Rain = 0
KTAT 230800Z 14011KT 21/16 A2983 RMK A01 T02110162  RH  077%=      5-min Rain = 0
KTAT 230805Z 14012KT 21/16 A2983 RMK A01 T02110163  RH  077%=      5-min Rain = 0
KTAT 230810Z 14012KT 21/16 A2983 RMK A01 T02110163  RH  078%=      5-min Rain = 0
KTAT 230815Z 14010KT 21/16 A2983 RMK A01 T02100163  RH  078%=      5-min Rain = 0
KTAT 230820Z 14011KT 21/16 A2983 RMK A01 T02100164  RH  079%=      5-min Rain = 0
KTAT 230825Z 14011KT 21/17 A2983 RMK A01 T02100165  RH  079%=      5-min Rain = 0
KTAT 230830Z 14011KT 21/17 A2983 RMK A01 T02110166  RH  079%=      5-min Rain = 0
KTAT 230835Z 14010KT 21/17 A2983 RMK A01 T02110166  RH  079%=      5-min Rain = 0
KTAT 230840Z 14010KT 21/17 A2983 RMK A01 T02110167  RH  080%=      5-min Rain = 0
KTAT 230845Z 15009G14KT 21/17 A2983 RMK A01 T02110167  RH  080%=      5-min Rain = 0
KTAT 230850Z 14010KT 21/17 A2983 RMK A01 T02110168  RH  080%=      5-min Rain = 0
KTAT 230855Z 15010KT 21/17 A2983 RMK A01 T02110168  RH  080%=      5-min Rain = 0
KTAT 230900Z 14011KT 21/17 A2983 RMK A01 T02110169  RH  081%=      5-min Rain = 0
KTAT 230905Z 15009KT 21/17 A2983 RMK A01 T02100169  RH  081%=      5-min Rain = 0
KTAT 230910Z 15009KT 21/17 A2983 RMK A01 T02100169  RH  081%=      5-min Rain = 0
KTAT 230915Z 14009KT 21/17 A2983 RMK A01 T02100170  RH  082%=      5-min Rain = 0
KTAT 230920Z 14009KT 21/17 A2983 RMK A01 T02100170  RH  082%=      5-min Rain = 0
KTAT 230925Z 14009KT 21/17 A2983 RMK A01 T02090170  RH  082%=      5-min Rain = 0
KTAT 230930Z 14009KT 21/17 A2983 RMK A01 T02080170  RH  083%=      5-min Rain = 0
KTAT 230935Z 15009KT 21/17 A2983 RMK A01 T02080170  RH  083%=      5-min Rain = 0
KTAT 230940Z 15008KT 21/17 A2983 RMK A01 T02080170  RH  083%=      5-min Rain = 0
KTAT 230945Z 14008KT 21/17 A2983 RMK A01 T02070170  RH  083%=      5-min Rain = 0
KTAT 230950Z 15008KT 21/17 A2983 RMK A01 T02070170  RH  084%=      5-min Rain = 0
KTAT 230955Z 14009KT 21/17 A2983 RMK A01 T02070170  RH  084%=      5-min Rain = 0
KTAT 231000Z 14007KT 21/17 A2983 RMK A01 T02060170  RH  084%=      5-min Rain = 0
KTAT 231005Z 13008KT 21/17 A2984 RMK A01 T02060170  RH  084%=      5-min Rain = 0
KTAT 231010Z 14007KT 21/17 A2984 RMK A01 T02060171  RH  085%=      5-min Rain = 0
KTAT 231015Z 14007KT 21/17 A2984 RMK A01 T02060171  RH  085%=      5-min Rain = 0
KTAT 231020Z 14006KT 21/17 A2984 RMK A01 T02060171  RH  084%=      5-min Rain = 0
KTAT 231025Z 13007KT 21/17 A2984 RMK A01 T02060171  RH  084%=      5-min Rain = 0
KTAT 231030Z 13007KT 21/17 A2984 RMK A01 T02060171  RH  084%=      5-min Rain = 0
KTAT 231035Z 14007KT 21/17 A2984 RMK A01 T02060171  RH  085%=      5-min Rain = 0
KTAT 231040Z 15008KT 21/17 A2983 RMK A01 T02070172  RH  084%=      5-min Rain = 0
KTAT 231045Z 16012KT 21/17 A2983 RMK A01 T02100174  RH  084%=      5-min Rain = 0
KTAT 231050Z 16013KT 21/18 A2983 RMK A01 T02120175  RH  083%=      5-min Rain = 0
KTAT 231055Z 15013KT 21/18 A2983 RMK A01 T02130175  RH  083%=      5-min Rain = 0
KTAT 231100Z 15015G20KT 21/18 A2983 RMK A01 T02140177  RH  083%=      5-min Rain = 0
KTAT 231105Z 15013KT 22/18 A2983 RMK A01 T02150176  RH  083%=      5-min Rain = 0
KTAT 231110Z 15013KT 21/18 A2983 RMK A01 T02140176  RH  083%=      5-min Rain = 0
KTAT 231115Z 15011KT 21/18 A2984 RMK A01 T02110175  RH  084%=      5-min Rain = 0
KTAT 231120Z 15011KT 21/18 A2984 RMK A01 T02100175  RH  085%=      5-min Rain = 0
KTAT 231125Z 16011KT 21/18 A2984 RMK A01 T02100175  RH  085%=      5-min Rain = 0
KTAT 231130Z 15011KT 21/18 A2984 RMK A01 T02100176  RH  085%=      5-min Rain = 0
KTAT 231135Z 16011KT 21/18 A2984 RMK A01 T02100176  RH  085%=      5-min Rain = 0
KTAT 231140Z 16012KT 21/18 A2984 RMK A01 T02100176  RH  085%=      5-min Rain = 0
KTAT 231145Z 16011KT 21/18 A2984 RMK A01 T02100176  RH  085%=      5-min Rain = 0
KTAT 231150Z 16011KT 21/18 A2984 RMK A01 T02080175  RH  086%=      5-min Rain = 0
KTAT 231155Z 16011KT 21/18 A2985 RMK A01 T02080176  RH  086%=      5-min Rain = 0
KTAT 231200Z 16012KT 21/18 A2985 RMK A01 T02090176  RH  086%=      5-min Rain = 0
KTAT 231205Z 16012KT 21/18 A2985 RMK A01 T02100177  RH  086%=      5-min Rain = 0
KTAT 231210Z 17013KT 21/18 A2985 RMK A01 T02110177  RH  085%=      5-min Rain = 0
KTAT 231215Z 17013KT 21/18 A2985 RMK A01 T02120177  RH  085%=      5-min Rain = 0
KTAT 231220Z 17012KT 21/18 A2985 RMK A01 T02130178  RH  084%=      5-min Rain = 0
KTAT 231225Z 17013KT 21/18 A2986 RMK A01 T02140178  RH  084%=      5-min Rain = 0
KTAT 231230Z 17013KT 22/18 A2986 RMK A01 T02160178  RH  083%=      5-min Rain = 0
KTAT 231235Z 17013G18KT 22/18 A2986 RMK A01 T02160178  RH  083%=      5-min Rain = 0
KTAT 231240Z 17014KT 22/18 A2986 RMK A01 T02170178  RH  083%=      5-min Rain = 0
KTAT 231245Z 17013KT 22/18 A2987 RMK A01 T02180177  RH  082%=      5-min Rain = 0
KTAT 231250Z 17014KT 22/18 A2987 RMK A01 T02190178  RH  082%=      5-min Rain = 0
KTAT 231255Z 17012KT 22/18 A2987 RMK A01 T02210178  RH  081%=      5-min Rain = 0
KTAT 231300Z 17015KT 22/18 A2987 RMK A01 T02220177  RH  080%=      5-min Rain = 0
KTAT 231305Z 17014G20KT 22/18 A2987 RMK A01 T02240178  RH  079%=      5-min Rain = 0
KTAT 231310Z 17016KT 23/18 A2987 RMK A01 T02260178  RH  078%=      5-min Rain = 0
KTAT 231315Z 17016KT 23/18 A2987 RMK A01 T02260177  RH  078%=      5-min Rain = 0
KTAT 231320Z 18015G20KT 23/18 A2987 RMK A01 T02260176  RH  077%=      5-min Rain = 0
KTAT 231325Z 17015G20KT 23/18 A2987 RMK A01 T02280176  RH  077%=      5-min Rain = 0
KTAT 231330Z 18014KT 23/18 A2987 RMK A01 T02280176  RH  077%=      5-min Rain = 0
KTAT 231335Z 17013G19KT 23/18 A2987 RMK A01 T02280176  RH  076%=      5-min Rain = 0
KTAT 231340Z 18016KT 23/18 A2987 RMK A01 T02310176  RH  075%=      5-min Rain = 0
KTAT 231345Z 17017G22KT 23/18 A2988 RMK A01 T02320175  RH  074%=      5-min Rain = 0
KTAT 231350Z 18018KT 23/17 A2988 RMK A01 T02340174  RH  073%=      5-min Rain = 0
KTAT 231355Z 18019KT 23/17 A2988 RMK A01 T02330172  RH  072%=      5-min Rain = 0
KTAT 231400Z 17017G24KT 24/17 A2989 RMK A01 T02360174  RH  072%=      5-min Rain = 0
KTAT 231405Z 17018G24KT 24/18 A2989 RMK A01 T02380175  RH  071%=      5-min Rain = 0
KTAT 231410Z 17018KT 25/17 A2989 RMK A01 T02450174  RH  068%=      5-min Rain = 0
KTAT 231415Z 19018G23KT 24/17 A2989 RMK A01 T02400169  RH  068%=      5-min Rain = 0
KTAT 231420Z 18016G22KT 24/17 A2989 RMK A01 T02420171  RH  068%=      5-min Rain = 0
KTAT 231425Z 18017KT 24/17 A2989 RMK A01 T02410172  RH  068%=      5-min Rain = 0
KTAT 231430Z 17017KT 25/17 A2989 RMK A01 T02490170  RH  065%=      5-min Rain = 0
KTAT 231435Z 17017G22KT 26/17 A2989 RMK A01 T02560168  RH  061%=      5-min Rain = 0
KTAT 231440Z 17016KT 26/17 A2989 RMK A01 T02580165  RH  059%=      5-min Rain = 0
KTAT 231445Z 17016KT 26/17 A2989 RMK A01 T02620167  RH  059%=      5-min Rain = 0
KTAT 231450Z 16015KT 27/16 A2989 RMK A01 T02660163  RH  056%=      5-min Rain = 0
KTAT 231455Z 18013G19KT 27/17 A2989 RMK A01 T02700165  RH  055%=      5-min Rain = 0
KTAT 231500Z 18014KT 26/16 A2989 RMK A01 T02640160  RH  055%=      5-min Rain = 0
KTAT 231505Z 19013KT 25/15 A2989 RMK A01 T02540154  RH  057%=      5-min Rain = 0
KTAT 231510Z 18012G17KT 27/16 A2989 RMK A01 T02650158  RH  055%=      5-min Rain = 0
KTAT 231515Z 18012G17KT 28/16 A2989 RMK A01 T02750157  RH  051%=      5-min Rain = 0
KTAT 231520Z 18012KT 28/15 A2989 RMK A01 T02770146  RH  047%=      5-min Rain = 0
KTAT 231525Z 18011KT 27/15 A299 RMK A01 T02670147  RH  050%=      5-min Rain = 0
KTAT 231530Z 17011G19KT 27/15 A2989 RMK A01 T02710153  RH  051%=      5-min Rain = 0
KTAT 231535Z 19011G17KT 28/15 A299 RMK A01 T02780145  RH  046%=      5-min Rain = 0
KTAT 231540Z 17009G14KT 29/14 A299 RMK A01 T02850135  RH  042%=      5-min Rain = 0
KTAT 231545Z 17012KT 29/14 A2989 RMK A01 T02910140  RH  041%=      5-min Rain = 0
KTAT 231550Z 17011G16KT 29/13 A2989 RMK A01 T02900131  RH  039%=      5-min Rain = 0
KTAT 231555Z 17009G14KT 29/13 A2989 RMK A01 T02910126  RH  038%=      5-min Rain = 0
KTAT 231600Z 17012G17KT 29/13 A2989 RMK A01 T02940126  RH  037%=      5-min Rain = 0
KTAT 231605Z 18011KT 30/11 A2989 RMK A01 T02970109  RH  032%=      5-min Rain = 0
KTAT 231610Z 17008G14KT 30/12 A2989 RMK A01 T02960118  RH  035%=      5-min Rain = 0
KTAT 231615Z 18010G18KT 29/11 A2989 RMK A01 T02930112  RH  034%=      5-min Rain = 0
KTAT 231620Z 17009KT 29/12 A2989 RMK A01 T02930118  RH  035%=      5-min Rain = 0
KTAT 231625Z 18009G14KT 30/12 A2988 RMK A01 T02980116  RH  034%=      5-min Rain = 0
KTAT 231630Z 17010KT 30/12 A2989 RMK A01 T02980118  RH  034%=      5-min Rain = 0
KTAT 231635Z 20012G18KT 29/11 A2989 RMK A01 T02880110  RH  034%=      5-min Rain = 0
KTAT 231640Z 19013KT 29/11 A2989 RMK A01 T02900109  RH  034%=      5-min Rain = 0
KTAT 231645Z 18013G19KT 30/11 A2989 RMK A01 T03010113  RH  032%=      5-min Rain = 0
KTAT 231650Z 18012G22KT 30/11 A2989 RMK A01 T02980112  RH  033%=      5-min Rain = 0
KTAT 231655Z 19014G20KT 30/11 A2989 RMK A01 T03010112  RH  032%=      5-min Rain = 0
KTAT 231700Z 18015G21KT 30/12 A2988 RMK A01 T02970116  RH  034%=      5-min Rain = 0
KTAT 231705Z 18015G21KT 31/11 A2988 RMK A01 T03070106  RH  030%=      5-min Rain = 0
KTAT 231710Z 18013G20KT 31/11 A2988 RMK A01 T03130113  RH  030%=      5-min Rain = 0
KTAT 231715Z 17014G22KT 32/11 A2988 RMK A01 T03160113  RH  030%=      5-min Rain = 0
KTAT 231720Z 15013G18KT 31/10 A2988 RMK A01 T03130103  RH  028%=      5-min Rain = 0
KTAT 231725Z 16015G20KT 31/11 A2988 RMK A01 T03060114  RH  032%=      5-min Rain = 0
KTAT 231730Z 18016G22KT 30/12 A2988 RMK A01 T03040121  RH  034%=      5-min Rain = 0
KTAT 231735Z 16015G23KT 32/12 A2988 RMK A01 T03160124  RH  032%=      5-min Rain = 0
KTAT 231740Z 18017G23KT 32/11 A2988 RMK A01 T03160109  RH  029%=      5-min Rain = 0
KTAT 231745Z 18015G21KT 30/11 A2988 RMK A01 T03020112  RH  032%=      5-min Rain = 0
KTAT 231750Z 19016G26KT 30/11 A2988 RMK A01 T03040107  RH  031%=      5-min Rain = 0
KTAT 231755Z 17016G23KT 31/12 A2988 RMK A01 T03140118  RH  031%=      5-min Rain = 0
KTAT 231800Z 16015G23KT 32/11 A2987 RMK A01 T03160114  RH  030%=      5-min Rain = 0
KTAT 231805Z 18017KT 31/11 A2987 RMK A01 T03080109  RH  030%=      5-min Rain = 0
KTAT 231810Z 18017G24KT 32/11 A2987 RMK A01 T03150114  RH  030%=      5-min Rain = 0
KTAT 231815Z 18017G23KT 32/11 A2987 RMK A01 T03210112  RH  029%=      5-min Rain = 0
KTAT 231820Z 18017G27KT 33/10 A2987 RMK A01 T03270103  RH  026%=      5-min Rain = 0
KTAT 231825Z 18016G24KT 32/10 A2987 RMK A01 T03230099  RH  026%=      5-min Rain = 0
KTAT 231830Z 17018G24KT 33/11 A2987 RMK A01 T03300105  RH  026%=      5-min Rain = 0
KTAT 231835Z 17018G24KT 33/11 A2986 RMK A01 T03280107  RH  027%=      5-min Rain = 0
KTAT 231840Z 18017G24KT 32/09 A2986 RMK A01 T03190092  RH  025%=      5-min Rain = 0
KTAT 231845Z 18019G26KT 32/10 A2986 RMK A01 T03210099  RH  026%=      5-min Rain = 0
KTAT 231850Z 18018G27KT 32/11 A2986 RMK A01 T03220107  RH  028%=      5-min Rain = 0
KTAT 231855Z 17019G26KT 32/11 A2986 RMK A01 T03160106  RH  029%=      5-min Rain = 0
KTAT 231900Z 17019G25KT 32/10 A2985 RMK A01 T03190103  RH  027%=      5-min Rain = 0
KTAT 231905Z 17023G29KT 32/09 A2985 RMK A01 T03220090  RH  025%=      5-min Rain = 0
KTAT 231910Z 18020G27KT 33/09 A2985 RMK A01 T03330088  RH  023%=      5-min Rain = 0
KTAT 231915Z 19017G23KT 33/09 A2985 RMK A01 T03340090  RH  023%=      5-min Rain = 0
KTAT 231920Z 19020G29KT 34/08 A2985 RMK A01 T03390081  RH  021%=      5-min Rain = 0
KTAT 231925Z 20022G33KT 34/08 A2985 RMK A01 T03360079  RH  021%=      5-min Rain = 0
KTAT 231930Z 19020G29KT 33/07 A2985 RMK A01 T03270068  RH  021%=      5-min Rain = 0
KTAT 231935Z 20022G28KT 33/06 A2985 RMK A01 T03330064  RH  019%=      5-min Rain = 0
KTAT 231940Z 18021G30KT 34/07 A2985 RMK A01 T03380067  RH  019%=      5-min Rain = 0
KTAT 231945Z 19023G30KT 33/06 A2985 RMK A01 T03340058  RH  018%=      5-min Rain = 0
KTAT 231950Z 17019G25KT 32/06 A2985 RMK A01 T03240059  RH  019%=      5-min Rain = 0
KTAT 231955Z 20019G27KT 33/05 A2984 RMK A01 T03280045  RH  017%=      5-min Rain = 0
KTAT 232000Z 19022G32KT 34/03 A2985 RMK A01 T03360027  RH  014%=      5-min Rain = 0
KTAT 232005Z 20019G27KT 34/03 A2984 RMK A01 T03350030  RH  015%=      5-min Rain = 0
KTAT 232010Z 20021G31KT 34/00 A2984 RMK A01 T03390002  RH  012%=      5-min Rain = 0
KTAT 232015Z 20024G33KT 34/M02 A2984 RMK A01 T03391015  RH  010%=      5-min Rain = 0
KTAT 232020Z 21020G28KT 34/M01 A2984 RMK A01 T03431009  RH  011%=      5-min Rain = 0
KTAT 232025Z 20022G31KT 34/M01 A2984 RMK A01 T03411013  RH  010%=      5-min Rain = 0
KTAT 232030Z 20022G33KT 35/M03 A2984 RMK A01 T03451028  RH  009%=      5-min Rain = 0
KTAT 232035Z 21020G33KT 34/M03 A2985 RMK A01 T03411031  RH  009%=      5-min Rain = 0
KTAT 232040Z 20019G26KT 34/M03 A2985 RMK A01 T03421030  RH  009%=      5-min Rain = 0
KTAT 232045Z 20021G28KT 35/M03 A2985 RMK A01 T03461031  RH  009%=      5-min Rain = 0
KTAT 232050Z 20020G34KT 34/M03 A2984 RMK A01 T03441031  RH  009%=      5-min Rain = 0
KTAT 232055Z 21021G30KT 34/M03 A2984 RMK A01 T03441031  RH  009%=      5-min Rain = 0
KTAT 232100Z 21027G35KT 34/M03 A2984 RMK A01 T03411031  RH  009%=      5-min Rain = 0
KTAT 232105Z 22023G32KT 34/M02 A2984 RMK A01 T03431023  RH  010%=      5-min Rain = 0
KTAT 232110Z 21022G30KT 34/M02 A2984 RMK A01 T03411023  RH  010%=      5-min Rain = 0
KTAT 232115Z 19021G29KT 34/M02 A2983 RMK A01 T03421023  RH  010%=      5-min Rain = 0
KTAT 232120Z 20017G23KT 35/M02 A2983 RMK A01 T03451021  RH  010%=      5-min Rain = 0
KTAT 232125Z 20022G27KT 34/M02 A2983 RMK A01 T03441022  RH  010%=      5-min Rain = 0
KTAT 232130Z 22024G32KT 34/M03 A2982 RMK A01 T03421027  RH  009%=      5-min Rain = 0
KTAT 232135Z 21024G33KT 34/M03 A2982 RMK A01 T03391028  RH  009%=      5-min Rain = 0
KTAT 232140Z 21018G23KT 34/M03 A2982 RMK A01 T03421034  RH  009%=      5-min Rain = 0
KTAT 232145Z 21023G32KT 34/M05 A2982 RMK A01 T03431050  RH  008%=      5-min Rain = 0
KTAT 232150Z 21021G29KT 35/M05 A2982 RMK A01 T03451052  RH  008%=      5-min Rain = 0
KTAT 232155Z 20022G31KT 34/M05 A2981 RMK A01 T03441053  RH  008%=      5-min Rain = 0
KTAT 232200Z 22025G34KT 34/M05 A2981 RMK A01 T03431049  RH  008%=      5-min Rain = 0
KTAT 232205Z 21023G34KT 34/M05 A2981 RMK A01 T03421051  RH  008%=      5-min Rain = 0
KTAT 232210Z 22025G34KT 34/M05 A2981 RMK A01 T03421052  RH  008%=      5-min Rain = 0
KTAT 232215Z 22022G31KT 34/M05 A2981 RMK A01 T03421051  RH  008%=      5-min Rain = 0
KTAT 232220Z 21023G33KT 34/M05 A2981 RMK A01 T03441053  RH  008%=      5-min Rain = 0
KTAT 232225Z 23021G31KT 34/M05 A2981 RMK A01 T03441053  RH  008%=      5-min Rain = 0
KTAT 232230Z 22024G35KT 34/M06 A2982 RMK A01 T03421055  RH  008%=      5-min Rain = 0
KTAT 232235Z 23021G29KT 34/M06 A2981 RMK A01 T03391057  RH  008%=      5-min Rain = 0
KTAT 232240Z 22017G24KT 34/M05 A2981 RMK A01 T03431050  RH  008%=      5-min Rain = 0
KTAT 232245Z 23019G25KT 34/M05 A2981 RMK A01 T03411052  RH  008%=      5-min Rain = 0
KTAT 232250Z 23020G26KT 34/M05 A2981 RMK A01 T03381051  RH  008%=      5-min Rain = 0
KTAT 232255Z 22020G28KT 34/M05 A2981 RMK A01 T03401053  RH  008%=      5-min Rain = 0
KTAT 232300Z 22017G24KT 34/M05 A2981 RMK A01 T03401052  RH  008%=      5-min Rain = 0
KTAT 232305Z 22019G25KT 34/M05 A2981 RMK A01 T03401054  RH  008%=      5-min Rain = 0
KTAT 232310Z 23021G28KT 34/M06 A2981 RMK A01 T03371056  RH  008%=      5-min Rain = 0
KTAT 232315Z 22019G25KT 33/M06 A2982 RMK A01 T03341056  RH  008%=      5-min Rain = 0
KTAT 232320Z 23018KT 34/M05 A2982 RMK A01 T03361053  RH  008%=      5-min Rain = 0
KTAT 232325Z 24020G25KT 33/M05 A2982 RMK A01 T03331054  RH  008%=      5-min Rain = 0
KTAT 232330Z 25018KT 33/M05 A2982 RMK A01 T03291054  RH  008%=      5-min Rain = 0
KTAT 232335Z 24019G25KT 33/M05 A2982 RMK A01 T03311052  RH  008%=      5-min Rain = 0
KTAT 232340Z 24021G27KT 33/M05 A2982 RMK A01 T03291053  RH  008%=      5-min Rain = 0
KTAT 232345Z 23018G24KT 33/M05 A2982 RMK A01 T03281053  RH  008%=      5-min Rain = 0
KTAT 232350Z 22018KT 33/M05 A2982 RMK A01 T03311050  RH  008%=      5-min Rain = 0
KTAT 232355Z 24016G24KT 33/M05 A2982 RMK A01 T03291052  RH  008%=      5-min Rain = 0
KTAT 240000Z 24014G19KT 33/M05 A2982 RMK A01 T03281050  RH  008%=      5-min Rain = 0
KTAT 240005Z 22018G25KT 33/M05 A2982 RMK A01 T03291050  RH  008%=      5-min Rain = 0
KTAT 240010Z 22015G21KT 33/M05 A2982 RMK A01 T03281051  RH  008%=      5-min Rain = 0
KTAT 240015Z 24016G24KT 33/M05 A2981 RMK A01 T03261051  RH  009%=      5-min Rain = 0
KTAT 240020Z 25016G21KT 32/M05 A2981 RMK A01 T03231053  RH  009%=      5-min Rain = 0
KTAT 240025Z 24017KT 32/M05 A2981 RMK A01 T03211052  RH  009%=      5-min Rain = 0
KTAT 240030Z 23016G22KT 32/M05 A2981 RMK A01 T03211052  RH  009%=      5-min Rain = 0
KTAT 240035Z 22017KT 32/M05 A2981 RMK A01 T03211052  RH  009%=      5-min Rain = 0
KTAT 240040Z 23016KT 32/M05 A2981 RMK A01 T03211051  RH  009%=      5-min Rain = 0
KTAT 240045Z 25016G21KT 32/M05 A2981 RMK A01 T03171052  RH  009%=      5-min Rain = 0
KTAT 240050Z 24015G20KT 32/M05 A2981 RMK A01 T03151053  RH  009%=      5-min Rain = 0
KTAT 240055Z 22015G20KT 32/M05 A2981 RMK A01 T03161051  RH  009%=      5-min Rain = 0
KTAT 240100Z 23013G18KT 31/M05 A2981 RMK A01 T03141052  RH  009%=      5-min Rain = 0
KTAT 240105Z 24015G20KT 31/M05 A2981 RMK A01 T03111053  RH  009%=      5-min Rain = 0
KTAT 240110Z 23013KT 31/M05 A2981 RMK A01 T03091054  RH  009%=      5-min Rain = 0
KTAT 240115Z 24011G16KT 31/M05 A2982 RMK A01 T03061052  RH  009%=      5-min Rain = 0
KTAT 240120Z 24012KT 30/M05 A2982 RMK A01 T03031052  RH  010%=      5-min Rain = 0
KTAT 240125Z 25012KT 30/M05 A2982 RMK A01 T02991052  RH  010%=      5-min Rain = 0
KTAT 240130Z 26011KT 30/M05 A2983 RMK A01 T02951051  RH  010%=      5-min Rain = 0
KTAT 240135Z 27010KT 29/M05 A2983 RMK A01 T02901050  RH  011%=      5-min Rain = 0
KTAT 240140Z 27009KT 29/M05 A2983 RMK A01 T02851049  RH  011%=      5-min Rain = 0
KTAT 240145Z 27008KT 28/M05 A2983 RMK A01 T02771049  RH  011%=      5-min Rain = 0
KTAT 240150Z 27007KT 27/M05 A2983 RMK A01 T02691048  RH  012%=      5-min Rain = 0
KTAT 240155Z 26008KT 26/M05 A2984 RMK A01 T02641049  RH  012%=      5-min Rain = 0
KTAT 240200Z 27008KT 26/M05 A2984 RMK A01 T02591050  RH  013%=      5-min Rain = 0
KTAT 240205Z 26008KT 26/M05 A2984 RMK A01 T02601050  RH  013%=      5-min Rain = 0
KTAT 240210Z 23005KT 26/M05 A2985 RMK A01 T02571050  RH  013%=      5-min Rain = 0
KTAT 240215Z 16006KT 24/M05 A2985 RMK A01 T02411052  RH  014%=      5-min Rain = 0
KTAT 240220Z 15009KT 23/M05 A2986 RMK A01 T02261051  RH  015%=      5-min Rain = 0
KTAT 240225Z 14007G15KT 24/M05 A2986 RMK A01 T02391050  RH  014%=      5-min Rain = 0
KTAT 240230Z 14007KT 26/M05 A2987 RMK A01 T02591050  RH  013%=      5-min Rain = 0
KTAT 240235Z 18008G15KT 26/M05 A2987 RMK A01 T02641051  RH  012%=      5-min Rain = 0
KTAT 240240Z 24007G12KT 27/M05 A2988 RMK A01 T02651052  RH  012%=      5-min Rain = 0
KTAT 240245Z 24005KT 27/M05 A2988 RMK A01 T02671054  RH  012%=      5-min Rain = 0
KTAT 240250Z 24009KT 27/M05 A2989 RMK A01 T02661054  RH  012%=      5-min Rain = 0
KTAT 240255Z 22007KT 26/M05 A2989 RMK A01 T02581054  RH  012%=      5-min Rain = 0
KTAT 240300Z 21008KT 25/M05 A299 RMK A01 T02491054  RH  013%=      5-min Rain = 0
KTAT 240305Z 20009KT 25/M06 A2991 RMK A01 T02461055  RH  013%=      5-min Rain = 0
KTAT 240310Z 20010KT 24/M06 A2991 RMK A01 T02441055  RH  013%=      5-min Rain = 0
KTAT 240315Z 21010KT 24/M06 A2992 RMK A01 T02441055  RH  013%=      5-min Rain = 0
KTAT 240320Z 21009KT 24/M06 A2992 RMK A01 T02381056  RH  014%=      5-min Rain = 0
KTAT 240325Z 21008KT 23/M06 A2992 RMK A01 T02321056  RH  014%=      5-min Rain = 0
KTAT 240330Z 21008KT 23/M06 A2993 RMK A01 T02251056  RH  015%=      5-min Rain = 0
KTAT 240335Z 22008KT 22/M06 A2993 RMK A01 T02181056  RH  015%=      5-min Rain = 0
KTAT 240340Z 23008KT 21/M06 A2993 RMK A01 T02121056  RH  016%=      5-min Rain = 0
KTAT 240345Z 23006KT 21/M06 A2993 RMK A01 T02101056  RH  016%=      5-min Rain = 0
KTAT 240350Z 25006KT 20/M06 A2994 RMK A01 T02041055  RH  017%=      5-min Rain = 0
KTAT 240355Z 26007KT 20/M05 A2994 RMK A01 T02011053  RH  018%=      5-min Rain = 0
KTAT 240400Z 27007KT 20/M05 A2995 RMK A01 T01981049  RH  018%=      5-min Rain = 0
KTAT 240405Z 27006KT 21/M06 A2995 RMK A01 T02071057  RH  016%=      5-min Rain = 0
KTAT 240410Z 28006KT 21/M06 A2996 RMK A01 T02111057  RH  016%=      5-min Rain = 0
KTAT 240415Z 29004KT 21/M06 A2996 RMK A01 T02071057  RH  016%=      5-min Rain = 0
KTAT 240420Z 30004KT 20/M06 A2996 RMK A01 T02041057  RH  017%=      5-min Rain = 0
KTAT 240425Z 32005KT 21/M06 A2996 RMK A01 T02091057  RH  016%=      5-min Rain = 0
KTAT 240430Z 35006KT 20/M04 A2996 RMK A01 T02021042  RH  019%=      5-min Rain = 0
KTAT 240435Z 00007KT 20/M04 A2997 RMK A01 T01971036  RH  021%=      5-min Rain = 0
KTAT 240440Z 01006KT 21/M05 A2999 RMK A01 T02101051  RH  017%=      5-min Rain = 0
KTAT 240445Z 34008KT 21/M05 A2998 RMK A01 T02101051  RH  017%=      5-min Rain = 0
KTAT 240450Z 33011KT 21/M04 A2997 RMK A01 T02091043  RH  018%=      5-min Rain = 0
KTAT 240455Z 35009KT 21/M04 A2998 RMK A01 T02081041  RH  019%=      5-min Rain = 0

Page generated in 0.0097 seconds.